Time;durP1;ratioP1;P1;durP2;ratioP2;P2;SDS_P1;SDS_P2;PMS_P1;PMS_P2;Temp;Humidity;BMP_temperature;BMP_pressure;BME280_temperature;BME280_humidity;BME280_pressure;Samples;Min_cycle;Max_cycle;Signal;HPM_P1;HPM_P2
2023/05/21 00:01:15;;;;;;;;;;;21.20;44.90;;;;;;5056568;28;19940;-71
2023/05/21 00:03:41;;;;;;;;;;;21.30;45.00;;;;;;5057594;28;20274;-71
2023/05/21 00:06:07;;;;;;;;;;;21.30;44.90;;;;;;5057805;28;19916;-70
2023/05/21 00:08:33;;;;;;;;;;;21.30;44.90;;;;;;5056542;28;19913;-70
2023/05/21 00:10:58;;;;;;;;;;;21.30;44.90;;;;;;5057413;28;19951;-71
2023/05/21 00:13:24;;;;;;;;;;;21.40;44.80;;;;;;5057650;28;19912;-70
2023/05/21 00:15:49;;;;;;;;;;;21.30;44.70;;;;;;5057723;28;19908;-71
2023/05/21 00:18:15;;;;;;;;;;;21.30;44.50;;;;;;5056289;28;19912;-70
2023/05/21 00:20:41;;;;;;;;;;;21.20;44.80;;;;;;5057739;28;19951;-70
2023/05/21 00:23:06;;;;;;;;;;;21.30;44.80;;;;;;5057581;28;20004;-71
2023/05/21 00:25:32;;;;;;;;;;;21.30;44.70;;;;;;5056041;28;20267;-71
2023/05/21 00:27:57;;;;;;;;;;;21.20;44.70;;;;;;5057672;28;19923;-71
2023/05/21 00:30:23;;;;;;;;;;;21.30;45.00;;;;;;5057286;28;20251;-71
2023/05/21 00:32:48;;;;;;;;;;;21.20;44.60;;;;;;5056916;28;20244;-71
2023/05/21 00:35:14;;;;;;;;;;;21.20;44.80;;;;;;5056896;28;19912;-71
2023/05/21 00:37:40;;;;;;;;;;;21.20;44.70;;;;;;5057123;28;19909;-70
2023/05/21 00:40:09;;;;;;;;;;;21.10;44.70;;;;;;5056911;28;20252;-71
2023/05/21 00:42:38;;;;;;;;;;;21.10;45.50;;;;;;5057147;28;19905;-70
2023/05/21 00:45:05;;;;;;;;;;;21.10;45.20;;;;;;5056858;28;19919;-71
2023/05/21 00:47:30;;;;;;;;;;;21.10;45.00;;;;;;5056867;28;19905;-71
2023/05/21 00:49:56;;;;;;;;;;;21.10;45.00;;;;;;5055978;28;19912;-70
2023/05/21 00:52:25;;;;;;;;;;;21.10;45.00;;;;;;5057199;28;19904;-71
2023/05/21 00:54:51;;;;;;;;;;;21.20;45.10;;;;;;5056565;28;19904;-71
2023/05/21 00:57:20;;;;;;;;;;;21.20;44.80;;;;;;5057021;28;19927;-70
2023/05/21 00:59:47;;;;;;;;;;;21.20;44.40;;;;;;5055518;28;19991;-71
2023/05/21 01:02:13;;;;;;;;;;;21.10;44.60;;;;;;5056912;28;20004;-71
2023/05/21 01:04:38;;;;;;;;;;;21.00;44.50;;;;;;5056792;28;20003;-70
2023/05/21 01:07:05;;;;;;;;;;;21.00;45.10;;;;;;5055228;28;20398;-70
2023/05/21 01:09:30;;;;;;;;;;;21.00;44.90;;;;;;5056566;28;19905;-71
2023/05/21 01:11:56;;;;;;;;;;;20.90;44.80;;;;;;5057120;28;19992;-71
2023/05/21 01:14:23;;;;;;;;;;;21.00;44.70;;;;;;5055295;28;19905;-71
2023/05/21 01:16:49;;;;;;;;;;;21.00;44.90;;;;;;5056522;28;20354;-71
2023/05/21 01:19:19;;;;;;;;;;;20.90;44.90;;;;;;5056547;28;19905;-71
2023/05/21 01:21:45;;;;;;;;;;;20.90;44.80;;;;;;5056442;28;19947;-70
2023/05/21 01:24:12;;;;;;;;;;;20.90;44.90;;;;;;5055010;28;19909;-71
2023/05/21 01:26:40;;;;;;;;;;;21.00;44.90;;;;;;5054846;28;19916;-71
2023/05/21 01:29:05;;;;;;;;;;;20.90;44.90;;;;;;5055225;28;19908;-70
2023/05/21 01:31:36;;;;;;;;;;;20.90;44.80;;;;;;5056332;28;19954;-71
2023/05/21 01:34:04;;;;;;;;;;;20.90;44.50;;;;;;5055989;28;19924;-71
2023/05/21 01:36:33;;;;;;;;;;;20.90;45.00;;;;;;5056033;28;19909;-70
2023/05/21 01:39:18;;;;;;;;;;;20.80;45.10;;;;;;5056224;28;19912;-71
2023/05/21 01:41:44;;;;;;;;;;;20.90;45.00;;;;;;5056010;28;20366;-69
2023/05/21 01:44:11;;;;;;;;;;;21.00;44.80;;;;;;5055628;28;19916;-70
2023/05/21 01:46:37;;;;;;;;;;;21.10;44.70;;;;;;5054679;28;20343;-71
2023/05/21 01:49:03;;;;;;;;;;;21.00;44.50;;;;;;5054346;28;19994;-71
2023/05/21 01:51:29;;;;;;;;;;;20.90;44.30;;;;;;5055886;28;19905;-71
2023/05/21 01:53:55;;;;;;;;;;;20.90;44.60;;;;;;5056014;28;20050;-71
2023/05/21 01:56:24;;;;;;;;;;;20.80;44.80;;;;;;5055754;28;19904;-71
2023/05/21 01:58:50;;;;;;;;;;;20.80;44.80;;;;;;5055712;28;19952;-71
2023/05/21 02:01:16;;;;;;;;;;;20.80;44.70;;;;;;5055620;28;19928;-71
2023/05/21 02:03:41;;;;;;;;;;;20.80;44.90;;;;;;5055429;28;20000;-71
2023/05/21 02:06:07;;;;;;;;;;;20.80;44.50;;;;;;5055297;28;20317;-70
2023/05/21 02:08:32;;;;;;;;;;;20.80;44.90;;;;;;5055403;28;19905;-70
2023/05/21 02:10:58;;;;;;;;;;;20.80;44.80;;;;;;5054205;28;19958;-70
2023/05/21 02:13:23;;;;;;;;;;;20.80;44.60;;;;;;5055243;28;19951;-70
2023/05/21 02:15:50;;;;;;;;;;;20.70;44.70;;;;;;5055375;28;19909;-71
2023/05/21 02:18:17;;;;;;;;;;;20.70;44.80;;;;;;5055194;28;19950;-71
2023/05/21 02:20:42;;;;;;;;;;;20.80;44.70;;;;;;5055198;28;20418;-70
2023/05/21 02:23:08;;;;;;;;;;;20.70;44.50;;;;;;5055629;28;19948;-70
2023/05/21 02:25:34;;;;;;;;;;;20.70;44.40;;;;;;5053774;28;19910;-70
2023/05/21 02:27:59;;;;;;;;;;;20.60;44.70;;;;;;5055600;28;19919;-70
2023/05/21 02:30:25;;;;;;;;;;;20.50;44.60;;;;;;5055110;28;20368;-70
2023/05/21 02:32:51;;;;;;;;;;;20.50;45.00;;;;;;5053337;28;19956;-70
2023/05/21 02:35:16;;;;;;;;;;;20.50;45.00;;;;;;5054969;28;19905;-71
2023/05/21 02:37:42;;;;;;;;;;;20.50;45.20;;;;;;5054696;28;20248;-71
2023/05/21 02:40:08;;;;;;;;;;;20.50;44.90;;;;;;5054765;28;20315;-71
2023/05/21 02:42:35;;;;;;;;;;;20.50;45.00;;;;;;5053766;28;19912;-70
2023/05/21 02:45:00;;;;;;;;;;;20.50;45.00;;;;;;5054567;28;19916;-70
2023/05/21 02:47:26;;;;;;;;;;;20.50;44.70;;;;;;5054702;28;20385;-70
2023/05/21 02:49:52;;;;;;;;;;;20.50;44.80;;;;;;5054940;28;19958;-71
2023/05/21 02:52:18;;;;;;;;;;;20.40;45.10;;;;;;5053791;28;20305;-71
2023/05/21 02:54:45;;;;;;;;;;;20.40;44.80;;;;;;5054522;28;19931;-70
2023/05/21 02:57:11;;;;;;;;;;;20.40;45.10;;;;;;5053445;28;20293;-70
2023/05/21 02:59:36;;;;;;;;;;;20.40;45.10;;;;;;5054399;28;19905;-71
2023/05/21 03:02:02;;;;;;;;;;;20.40;45.20;;;;;;5054193;28;20309;-71
2023/05/21 03:04:27;;;;;;;;;;;20.40;45.00;;;;;;5054371;28;19912;-71
2023/05/21 03:06:54;;;;;;;;;;;20.50;45.20;;;;;;5054492;28;19916;-70
2023/05/21 03:09:22;;;;;;;;;;;20.50;45.00;;;;;;5054467;28;19973;-70
2023/05/21 03:11:48;;;;;;;;;;;20.60;44.70;;;;;;5052926;28;20365;-70
2023/05/21 03:14:15;;;;;;;;;;;20.60;44.80;;;;;;5053976;28;19905;-70
2023/05/21 03:16:42;;;;;;;;;;;20.60;44.80;;;;;;5054136;28;19909;-70
2023/05/21 03:19:08;;;;;;;;;;;20.60;44.80;;;;;;5054494;28;19905;-71
2023/05/21 03:21:33;;;;;;;;;;;20.60;44.60;;;;;;5052879;28;19987;-70
2023/05/21 03:24:00;;;;;;;;;;;20.60;44.50;;;;;;5054024;28;19912;-70
2023/05/21 03:26:26;;;;;;;;;;;20.70;44.90;;;;;;5054163;28;20266;-70
2023/05/21 03:28:52;;;;;;;;;;;20.60;44.30;;;;;;5054533;28;20007;-70
2023/05/21 03:31:17;;;;;;;;;;;20.60;44.80;;;;;;5053774;28;20347;-70
2023/05/21 03:33:43;;;;;;;;;;;20.60;45.00;;;;;;5054322;28;19923;-70
2023/05/21 03:36:08;;;;;;;;;;;20.60;45.00;;;;;;5054179;28;19905;-70
2023/05/21 03:38:34;;;;;;;;;;;20.70;44.80;;;;;;5053945;28;19912;-70
2023/05/21 03:40:59;;;;;;;;;;;20.80;44.90;;;;;;5054008;28;20343;-70
2023/05/21 03:43:25;;;;;;;;;;;20.80;44.50;;;;;;5052486;28;20003;-70
2023/05/21 03:45:52;;;;;;;;;;;20.90;44.60;;;;;;5052846;28;19912;-70
2023/05/21 03:48:17;;;;;;;;;;;20.80;44.50;;;;;;5053697;28;19904;-70
2023/05/21 03:50:43;;;;;;;;;;;20.90;44.40;;;;;;5053960;28;19928;-70
2023/05/21 03:53:09;;;;;;;;;;;20.80;44.60;;;;;;5054099;28;19911;-70
2023/05/21 03:55:35;;;;;;;;;;;20.80;44.70;;;;;;5053721;28;19904;-70
2023/05/21 03:58:00;;;;;;;;;;;20.70;44.60;;;;;;5053825;28;19911;-69
2023/05/21 04:00:26;;;;;;;;;;;20.70;44.70;;;;;;5053589;28;19909;-69
2023/05/21 04:02:51;;;;;;;;;;;20.60;44.80;;;;;;5053861;28;19905;-70
2023/05/21 04:05:17;;;;;;;;;;;20.60;44.90;;;;;;5052537;28;19909;-70
2023/05/21 04:07:45;;;;;;;;;;;20.60;45.00;;;;;;5053957;28;20366;-70
2023/05/21 04:10:11;;;;;;;;;;;20.60;44.90;;;;;;5053766;28;20236;-70
2023/05/21 04:12:36;;;;;;;;;;;20.60;45.00;;;;;;5053676;28;19959;-70
2023/05/21 04:15:02;;;;;;;;;;;20.70;45.10;;;;;;5052859;28;20003;-70
2023/05/21 04:17:28;;;;;;;;;;;20.70;44.90;;;;;;5053635;28;19905;-70
2023/05/21 04:19:53;;;;;;;;;;;20.80;44.90;;;;;;5053688;28;19912;-70
2023/05/21 04:22:20;;;;;;;;;;;20.80;44.50;;;;;;5053502;28;19905;-70
2023/05/21 04:24:45;;;;;;;;;;;20.90;44.80;;;;;;5053335;28;19959;-70
2023/05/21 04:27:12;;;;;;;;;;;21.00;44.50;;;;;;5055721;28;19943;-70
2023/05/21 04:29:41;;;;;;;;;;;21.00;44.20;;;;;;5057832;28;20011;-70
2023/05/21 04:32:07;;;;;;;;;;;21.00;44.20;;;;;;5057280;28;19924;-71
2023/05/21 04:34:33;;;;;;;;;;;21.00;44.40;;;;;;5057301;28;19919;-70
2023/05/21 04:37:00;;;;;;;;;;;20.90;43.80;;;;;;5057107;28;20017;-70
2023/05/21 04:39:27;;;;;;;;;;;20.90;44.00;;;;;;5057239;28;19905;-70
2023/05/21 04:41:53;;;;;;;;;;;20.80;44.30;;;;;;5055817;28;20409;-70
2023/05/21 04:44:19;;;;;;;;;;;20.80;44.40;;;;;;5055709;28;20007;-71
2023/05/21 04:46:44;;;;;;;;;;;20.80;44.60;;;;;;5055530;28;20401;-70
2023/05/21 04:49:10;;;;;;;;;;;20.90;44.70;;;;;;5056842;28;19999;-70
2023/05/21 04:51:36;;;;;;;;;;;20.90;44.40;;;;;;5057039;28;19911;-70
2023/05/21 04:54:02;;;;;;;;;;;21.00;44.30;;;;;;5056993;28;19905;-70
2023/05/21 04:56:28;;;;;;;;;;;21.10;44.20;;;;;;5056522;28;19905;-71
2023/05/21 04:58:54;;;;;;;;;;;21.20;44.00;;;;;;5056692;28;19999;-71
2023/05/21 05:01:24;;;;;;;;;;;21.30;43.80;;;;;;5057013;28;19908;-71
2023/05/21 05:03:50;;;;;;;;;;;21.30;43.80;;;;;;5056660;28;20380;-70
2023/05/21 05:06:16;;;;;;;;;;;21.40;44.00;;;;;;5056620;28;19999;-71
2023/05/21 05:08:41;;;;;;;;;;;21.40;43.70;;;;;;5056640;28;19954;-71
2023/05/21 05:11:07;;;;;;;;;;;21.40;43.90;;;;;;5056254;28;19954;-71
2023/05/21 05:13:33;;;;;;;;;;;21.50;43.80;;;;;;5056647;28;19912;-70
2023/05/21 05:15:59;;;;;;;;;;;21.40;43.60;;;;;;5056350;28;20317;-70
2023/05/21 05:18:24;;;;;;;;;;;21.40;43.30;;;;;;5056398;28;19912;-70
2023/05/21 05:20:50;;;;;;;;;;;21.50;43.60;;;;;;5054939;28;19912;-70
2023/05/21 05:23:16;;;;;;;;;;;21.50;43.80;;;;;;5056174;28;19905;-70
2023/05/21 05:25:42;;;;;;;;;;;21.50;42.90;;;;;;5055880;28;19908;-71
2023/05/21 05:28:07;;;;;;;;;;;21.50;43.20;;;;;;5056570;28;20309;-70
2023/05/21 05:30:34;;;;;;;;;;;21.50;43.20;;;;;;5056241;28;20355;-71
2023/05/21 05:33:00;;;;;;;;;;;21.50;43.50;;;;;;5056089;28;19921;-70
2023/05/21 05:35:25;;;;;;;;;;;21.50;43.50;;;;;;5055951;28;20262;-70
2023/05/21 05:37:51;;;;;;;;;;;21.50;43.30;;;;;;5055485;28;19905;-71
2023/05/21 05:40:16;;;;;;;;;;;21.60;43.10;;;;;;5055615;28;20309;-70
2023/05/21 05:42:42;;;;;;;;;;;21.60;42.90;;;;;;5054323;28;19957;-70
2023/05/21 05:45:08;;;;;;;;;;;21.70;42.80;;;;;;5055691;28;19912;-71
2023/05/21 05:47:33;;;;;;;;;;;21.70;43.20;;;;;;5054445;28;20343;-71
2023/05/21 05:49:59;;;;;;;;;;;21.80;43.20;;;;;;5054414;28;19905;-70
2023/05/21 05:52:24;;;;;;;;;;;21.90;42.50;;;;;;5055682;28;19975;-71
2023/05/21 05:54:50;;;;;;;;;;;21.80;42.10;;;;;;5055741;28;19915;-71
2023/05/21 05:57:15;;;;;;;;;;;21.70;42.30;;;;;;5056114;28;19909;-71
2023/05/21 05:59:41;;;;;;;;;;;21.70;42.90;;;;;;5055392;28;19912;-72
2023/05/21 06:02:06;;;;;;;;;;;21.80;43.00;;;;;;5055881;28;20350;-71
2023/05/21 06:04:32;;;;;;;;;;;21.80;42.20;;;;;;5055241;28;20335;-71
2023/05/21 06:06:58;;;;;;;;;;;21.70;41.90;;;;;;5055215;28;19951;-71
2023/05/21 06:09:24;;;;;;;;;;;21.70;42.30;;;;;;5055121;28;20008;-71
2023/05/21 06:11:50;;;;;;;;;;;21.60;42.00;;;;;;5054118;28;19999;-71
2023/05/21 06:14:15;;;;;;;;;;;21.70;42.90;;;;;;5055494;28;19905;-71
2023/05/21 06:16:41;;;;;;;;;;;21.70;42.20;;;;;;5055464;28;19911;-71
2023/05/21 06:19:06;;;;;;;;;;;21.70;42.70;;;;;;5055105;28;19905;-71
2023/05/21 06:21:32;;;;;;;;;;;21.70;42.70;;;;;;5053989;28;19904;-71
2023/05/21 06:23:58;;;;;;;;;;;21.80;42.70;;;;;;5054822;28;20000;-71
2023/05/21 06:26:23;;;;;;;;;;;21.70;43.30;;;;;;5055360;28;19909;-70
2023/05/21 06:28:49;;;;;;;;;;;21.80;42.60;;;;;;5055448;28;19940;-71
2023/05/21 06:31:15;;;;;;;;;;;21.90;42.50;;;;;;5055033;28;19913;-70
2023/05/21 06:33:40;;;;;;;;;;;21.90;42.50;;;;;;5054661;28;19920;-70
2023/05/21 06:36:06;;;;;;;;;;;21.90;42.40;;;;;;5054547;28;19911;-71
2023/05/21 06:38:32;;;;;;;;;;;21.90;42.30;;;;;;5054789;28;19911;-71
2023/05/21 06:40:57;;;;;;;;;;;21.90;42.20;;;;;;5053551;28;20340;-71
2023/05/21 06:43:23;;;;;;;;;;;21.90;42.00;;;;;;5054744;28;19946;-71
2023/05/21 06:45:48;;;;;;;;;;;21.80;42.00;;;;;;5054160;28;19982;-71
2023/05/21 06:48:15;;;;;;;;;;;21.70;42.70;;;;;;5054060;28;19904;-70
2023/05/21 06:50:41;;;;;;;;;;;21.70;42.70;;;;;;5054342;28;20243;-70
2023/05/21 06:53:07;;;;;;;;;;;21.70;42.90;;;;;;5054137;28;19905;-70
2023/05/21 06:55:32;;;;;;;;;;;21.80;43.00;;;;;;5054463;28;20000;-70
2023/05/21 06:57:58;;;;;;;;;;;21.80;43.00;;;;;;5054432;28;19909;-70
2023/05/21 07:00:24;;;;;;;;;;;21.90;43.00;;;;;;5054399;28;19904;-70
2023/05/21 07:02:49;;;;;;;;;;;22.00;42.80;;;;;;5052924;28;20367;-70
2023/05/21 07:05:15;;;;;;;;;;;22.10;42.60;;;;;;5054323;28;19999;-70
2023/05/21 07:07:40;;;;;;;;;;;22.10;42.70;;;;;;5054241;28;19916;-70
2023/05/21 07:10:07;;;;;;;;;;;22.20;42.60;;;;;;5054258;28;19909;-70
2023/05/21 07:12:32;;;;;;;;;;;22.30;42.50;;;;;;5054549;28;19905;-70
2023/05/21 07:14:58;;;;;;;;;;;22.30;42.30;;;;;;5054311;28;20255;-71
2023/05/21 07:17:24;;;;;;;;;;;22.30;42.00;;;;;;5052955;28;20324;-71
2023/05/21 07:19:49;;;;;;;;;;;22.30;42.30;;;;;;5054106;28;19931;-71
2023/05/21 07:22:15;;;;;;;;;;;22.30;42.30;;;;;;5052527;28;20003;-70
2023/05/21 07:24:40;;;;;;;;;;;22.30;42.00;;;;;;5053922;28;19908;-70
2023/05/21 07:27:06;;;;;;;;;;;22.20;42.20;;;;;;5053885;28;19998;-71
2023/05/21 07:29:34;;;;;;;;;;;22.30;41.70;;;;;;5054291;28;19964;-71
2023/05/21 07:32:00;;;;;;;;;;;22.20;41.90;;;;;;5053778;28;19909;-70
2023/05/21 07:34:25;;;;;;;;;;;22.20;42.20;;;;;;5054075;28;19911;-70
2023/05/21 07:36:51;;;;;;;;;;;22.20;41.90;;;;;;5053901;28;19951;-70
2023/05/21 07:39:16;;;;;;;;;;;22.30;42.30;;;;;;5054360;28;20325;-70
2023/05/21 07:41:42;;;;;;;;;;;22.30;42.20;;;;;;5052761;28;19911;-70
2023/05/21 07:44:07;;;;;;;;;;;22.30;42.30;;;;;;5052319;28;19912;-71
2023/05/21 07:46:33;;;;;;;;;;;22.30;42.20;;;;;;5053685;28;19905;-70
2023/05/21 07:48:59;;;;;;;;;;;22.40;42.20;;;;;;5053635;28;20258;-70
2023/05/21 07:51:25;;;;;;;;;;;22.40;42.10;;;;;;5053669;28;20298;-70
2023/05/21 07:53:50;;;;;;;;;;;22.40;42.00;;;;;;5052332;28;19904;-70
2023/05/21 07:56:16;;;;;;;;;;;22.40;42.10;;;;;;5053582;28;19912;-70
2023/05/21 07:58:44;;;;;;;;;;;22.40;42.20;;;;;;5053820;28;19905;-71
2023/05/21 08:01:13;;;;;;;;;;;22.40;42.00;;;;;;5057296;28;19928;-70
2023/05/21 08:03:38;;;;;;;;;;;22.50;41.50;;;;;;5057811;28;19912;-70
2023/05/21 08:06:04;;;;;;;;;;;22.50;41.20;;;;;;5057293;28;19913;-70
2023/05/21 08:08:29;;;;;;;;;;;22.50;41.20;;;;;;5057412;28;19911;-71
2023/05/21 08:10:55;;;;;;;;;;;22.50;41.30;;;;;;5057448;28;19905;-71
2023/05/21 08:13:21;;;;;;;;;;;22.50;40.90;;;;;;5057568;28;19905;-71
2023/05/21 08:15:47;;;;;;;;;;;22.50;41.20;;;;;;5057431;28;20058;-70
2023/05/21 08:18:12;;;;;;;;;;;22.50;41.10;;;;;;5057330;28;19905;-70
2023/05/21 08:20:38;;;;;;;;;;;22.50;41.60;;;;;;5057066;28;19904;-70
2023/05/21 08:23:04;;;;;;;;;;;22.60;41.50;;;;;;5057566;28;19954;-70
2023/05/21 08:25:29;;;;;;;;;;;22.60;40.90;;;;;;5057374;28;20011;-71
2023/05/21 08:27:55;;;;;;;;;;;22.60;41.00;;;;;;5057768;28;19908;-70
2023/05/21 08:30:20;;;;;;;;;;;22.60;41.20;;;;;;5057264;28;19913;-70
2023/05/21 08:32:46;;;;;;;;;;;22.60;40.70;;;;;;5056909;28;20003;-70
2023/05/21 08:35:12;;;;;;;;;;;22.60;41.00;;;;;;5057147;28;20384;-70
2023/05/21 08:37:37;;;;;;;;;;;22.60;41.00;;;;;;5057418;28;19904;-70
2023/05/21 08:40:05;;;;;;;;;;;22.60;40.70;;;;;;5057095;28;19920;-71
2023/05/21 08:42:49;;;;;;;;;;;22.70;40.70;;;;;;5057068;28;19908;-70
2023/05/21 08:45:21;;;;;;;;;;;22.70;40.80;;;;;;5056883;28;19913;-71
2023/05/21 08:47:47;;;;;;;;;;;22.70;40.90;;;;;;5057250;28;20259;-70
2023/05/21 08:50:13;;;;;;;;;;;22.70;40.70;;;;;;5055570;28;19911;-70
2023/05/21 08:52:39;;;;;;;;;;;22.70;40.30;;;;;;5057263;28;19911;-70
2023/05/21 08:55:05;;;;;;;;;;;22.70;41.10;;;;;;5055503;28;19912;-70
2023/05/21 08:57:31;;;;;;;;;;;22.70;40.70;;;;;;5056618;28;20449;-69
2023/05/21 08:59:57;;;;;;;;;;;22.70;40.60;;;;;;5056763;28;19944;-71
2023/05/21 09:02:25;;;;;;;;;;;22.70;41.00;;;;;;5056321;28;20313;-70
2023/05/21 09:04:55;;;;;;;;;;;22.80;41.00;;;;;;5056703;28;19959;-70
2023/05/21 09:07:23;;;;;;;;;;;22.80;40.90;;;;;;5056482;28;20313;-71
2023/05/21 09:10:01;;;;;;;;;;;22.80;41.00;;;;;;5056495;28;19904;-70
2023/05/21 09:12:27;;;;;;;;;;;22.90;41.30;;;;;;5054257;28;19947;-71
2023/05/21 09:14:53;;;;;;;;;;;22.90;40.70;;;;;;5055465;28;19948;-70
2023/05/21 09:17:21;;;;;;;;;;;22.90;40.70;;;;;;5056366;28;19908;-70
2023/05/21 09:20:08;;;;;;;;;;;22.90;40.40;;;;;;5056341;28;20428;-71
2023/05/21 09:22:34;;;;;;;;;;;22.90;40.90;;;;;;5056003;28;19940;-70
2023/05/21 09:25:03;;;;;;;;;;;22.90;40.50;;;;;;5056135;28;19923;-70
2023/05/21 09:27:28;;;;;;;;;;;22.90;40.60;;;;;;5056023;28;19947;-71
2023/05/21 09:29:54;;;;;;;;;;;22.90;40.70;;;;;;5055949;28;19913;-70
2023/05/21 09:32:19;;;;;;;;;;;22.90;40.60;;;;;;5055933;28;19917;-71
2023/05/21 09:34:46;;;;;;;;;;;22.90;39.90;;;;;;5055744;28;19958;-70
2023/05/21 09:37:12;;;;;;;;;;;22.90;40.40;;;;;;5056132;28;19928;-71
2023/05/21 09:39:39;;;;;;;;;;;22.90;40.30;;;;;;5056042;28;20350;-70
2023/05/21 09:42:05;;;;;;;;;;;22.90;40.70;;;;;;5055891;28;19915;-70
2023/05/21 09:44:31;;;;;;;;;;;23.10;40.30;;;;;;5055991;28;19913;-70
2023/05/21 09:46:59;;;;;;;;;;;23.10;40.50;;;;;;5055904;28;20310;-70
2023/05/21 09:49:26;;;;;;;;;;;23.10;40.50;;;;;;5055666;28;20424;-70
2023/05/21 09:51:58;;;;;;;;;;;23.10;39.00;;;;;;5055593;28;19908;-70
2023/05/21 09:54:24;;;;;;;;;;;23.10;39.50;;;;;;5054204;28;20358;-70
2023/05/21 09:56:52;;;;;;;;;;;23.10;40.10;;;;;;5055532;28;20339;-70
2023/05/21 09:59:17;;;;;;;;;;;23.20;40.10;;;;;;5054317;28;20416;-70
2023/05/21 10:01:44;;;;;;;;;;;23.20;39.60;;;;;;5055618;28;19904;-70
2023/05/21 10:04:10;;;;;;;;;;;23.30;40.00;;;;;;5055362;28;19971;-70
2023/05/21 10:06:42;;;;;;;;;;;23.30;40.20;;;;;;5055512;28;19904;-70
2023/05/21 10:09:09;;;;;;;;;;;23.40;40.30;;;;;;5055131;28;19999;-70
2023/05/21 10:11:35;;;;;;;;;;;23.40;39.00;;;;;;5054311;28;19909;-70
2023/05/21 10:14:06;;;;;;;;;;;23.40;39.70;;;;;;5054330;28;20453;-71
2023/05/21 10:16:32;;;;;;;;;;;23.40;39.80;;;;;;5055116;28;19999;-70
2023/05/21 10:18:58;;;;;;;;;;;23.50;39.40;;;;;;5055555;28;20000;-71
2023/05/21 10:21:25;;;;;;;;;;;23.50;38.70;;;;;;5055123;28;20385;-71
2023/05/21 10:23:50;;;;;;;;;;;23.50;39.20;;;;;;5054026;28;19912;-71
2023/05/21 10:26:17;;;;;;;;;;;23.50;38.50;;;;;;5054977;28;19927;-71
2023/05/21 10:28:43;;;;;;;;;;;23.50;39.00;;;;;;5054832;28;19905;-71
2023/05/21 10:31:09;;;;;;;;;;;23.50;39.10;;;;;;5053775;28;20298;-71
2023/05/21 10:33:35;;;;;;;;;;;23.50;39.00;;;;;;5054675;28;19967;-71
2023/05/21 10:36:01;;;;;;;;;;;23.60;38.60;;;;;;5054657;28;19912;-70
2023/05/21 10:38:27;;;;;;;;;;;23.60;37.70;;;;;;5054859;28;19908;-70
2023/05/21 10:40:54;;;;;;;;;;;23.60;38.80;;;;;;5054749;28;19948;-70
2023/05/21 10:43:38;;;;;;;;;;;23.60;37.80;;;;;;5055056;28;20385;-70
2023/05/21 10:46:07;;;;;;;;;;;23.60;37.50;;;;;;5054451;28;20286;-70
2023/05/21 10:48:48;;;;;;;;;;;23.60;38.70;;;;;;5054728;28;19998;-71
2023/05/21 10:51:22;;;;;;;;;;;23.70;38.80;;;;;;5054625;28;19908;-70
2023/05/21 10:54:00;;;;;;;;;;;23.70;39.00;;;;;;5054528;28;20285;-70
2023/05/21 10:56:36;;;;;;;;;;;23.80;37.40;;;;;;5054506;28;20351;-70
2023/05/21 10:59:02;;;;;;;;;;;23.80;38.40;;;;;;5054240;28;19909;-71
2023/05/21 11:01:32;;;;;;;;;;;23.90;38.40;;;;;;5054408;28;20417;-70
2023/05/21 11:03:58;;;;;;;;;;;23.90;37.70;;;;;;5053275;28;19905;-70
2023/05/21 11:06:24;;;;;;;;;;;23.90;38.30;;;;;;5054354;28;19911;-70
2023/05/21 11:08:52;;;;;;;;;;;23.90;37.70;;;;;;5053105;28;20373;-70
2023/05/21 11:11:36;;;;;;;;;;;24.00;38.50;;;;;;5053978;28;19905;-71
2023/05/21 11:14:22;;;;;;;;;;;24.00;38.20;;;;;;5054313;28;19905;-71
2023/05/21 11:16:47;;;;;;;;;;;24.00;38.40;;;;;;5053963;28;19995;-70
2023/05/21 11:19:16;;;;;;;;;;;24.00;38.30;;;;;;5054231;28;19951;-71
2023/05/21 11:21:41;;;;;;;;;;;24.10;38.20;;;;;;5053976;28;19950;-70
2023/05/21 11:24:09;;;;;;;;;;;24.10;38.20;;;;;;5053637;28;20314;-70
2023/05/21 11:26:47;;;;;;;;;;;24.10;37.80;;;;;;5054281;28;20298;-71
2023/05/21 11:29:13;;;;;;;;;;;24.20;38.30;;;;;;5054030;28;19991;-71
2023/05/21 11:31:43;;;;;;;;;;;24.20;38.20;;;;;;5053939;28;19920;-71
2023/05/21 11:34:15;;;;;;;;;;;24.30;37.20;;;;;;5053458;28;20319;-71
2023/05/21 11:36:47;;;;;;;;;;;24.30;38.20;;;;;;5053536;28;19981;-71
2023/05/21 11:39:14;;;;;;;;;;;24.30;37.10;;;;;;5054212;28;19905;-70
2023/05/21 11:41:52;;;;;;;;;;;24.30;37.20;;;;;;5053849;28;19905;-71
2023/05/21 11:44:20;;;;;;;;;;;24.40;38.60;;;;;;5053587;28;19924;-71
2023/05/21 11:46:47;;;;;;;;;;;24.40;37.60;;;;;;5053776;28;19927;-72
2023/05/21 11:49:12;;;;;;;;;;;24.40;36.80;;;;;;5053750;28;20393;-70
2023/05/21 11:51:39;;;;;;;;;;;24.40;37.50;;;;;;5053137;28;19985;-69
2023/05/21 11:54:07;;;;;;;;;;;24.50;37.30;;;;;;5052874;28;19905;-70
2023/05/21 11:56:35;;;;;;;;;;;24.50;37.90;;;;;;5053913;28;19943;-70
2023/05/21 11:59:01;;;;;;;;;;;24.60;38.00;;;;;;5053961;28;19912;-69
2023/05/21 12:01:26;;;;;;;;;;;24.60;38.20;;;;;;5053737;28;20275;-70
2023/05/21 12:03:52;;;;;;;;;;;24.70;37.30;;;;;;5053924;28;19991;-70
2023/05/21 12:06:19;;;;;;;;;;;24.70;37.10;;;;;;5053638;28;20004;-70
2023/05/21 12:08:50;;;;;;;;;;;24.80;37.50;;;;;;5053918;28;20301;-70
2023/05/21 12:11:15;;;;;;;;;;;24.80;37.50;;;;;;5053518;28;19952;-70
2023/05/21 12:13:41;;;;;;;;;;;24.90;37.50;;;;;;5053300;28;19959;-70
2023/05/21 12:16:07;;;;;;;;;;;24.90;37.00;;;;;;5053258;28;20273;-70
2023/05/21 12:18:32;;;;;;;;;;;25.00;37.30;;;;;;5053622;28;19911;-70
2023/05/21 12:20:59;;;;;;;;;;;25.10;37.60;;;;;;5053628;28;19935;-70
2023/05/21 12:23:25;;;;;;;;;;;25.10;37.30;;;;;;5053694;28;19956;-70
2023/05/21 12:25:52;;;;;;;;;;;25.10;36.60;;;;;;5053145;28;20401;-70
2023/05/21 12:28:19;;;;;;;;;;;25.20;37.50;;;;;;5053145;28;20271;-70
2023/05/21 12:30:45;;;;;;;;;;;25.30;37.50;;;;;;5052944;28;19913;-70
2023/05/21 12:33:10;;;;;;;;;;;25.40;37.70;;;;;;5051926;28;19924;-71
2023/05/21 12:35:36;;;;;;;;;;;25.40;37.70;;;;;;5053423;28;20339;-71
2023/05/21 12:38:02;;;;;;;;;;;25.50;37.30;;;;;;5053210;28;19909;-71
2023/05/21 12:40:37;;;;;;;;;;;25.60;37.20;;;;;;5053188;28;19958;-71
2023/05/21 12:43:03;;;;;;;;;;;25.70;36.60;;;;;;5053033;28;19905;-71
2023/05/21 12:45:30;;;;;;;;;;;25.80;37.60;;;;;;5053458;28;19920;-71
2023/05/21 12:47:55;;;;;;;;;;;25.90;37.60;;;;;;5056204;28;19904;-71
2023/05/21 12:50:21;;;;;;;;;;;26.00;37.50;;;;;;5055752;28;19904;-69
2023/05/21 12:52:47;;;;;;;;;;;26.10;36.80;;;;;;5055515;28;19905;-70
2023/05/21 12:55:13;;;;;;;;;;;26.20;37.40;;;;;;5056725;28;19905;-70
2023/05/21 12:57:39;;;;;;;;;;;26.30;37.50;;;;;;5056582;28;19958;-70
2023/05/21 13:00:05;;;;;;;;;;;26.40;37.10;;;;;;5056400;28;19909;-70
2023/05/21 13:02:32;;;;;;;;;;;26.40;37.00;;;;;;5055446;28;19905;-70
2023/05/21 13:04:58;;;;;;;;;;;26.60;37.20;;;;;;5056933;28;19912;-70
2023/05/21 13:07:25;;;;;;;;;;;26.70;37.10;;;;;;5055372;28;20317;-70
2023/05/21 13:09:52;;;;;;;;;;;26.80;36.90;;;;;;5056467;28;20274;-70
2023/05/21 13:12:27;;;;;;;;;;;27.00;37.00;;;;;;5056736;28;19962;-70
2023/05/21 13:14:53;;;;;;;;;;;27.10;36.90;;;;;;5055433;28;19905;-70
2023/05/21 13:17:19;;;;;;;;;;;27.30;36.90;;;;;;5056538;28;19905;-70
2023/05/21 13:20:13;;;;;;;;;;;27.40;36.60;;;;;;5056415;28;19912;-70
2023/05/21 13:22:41;;;;;;;;;;;27.50;36.80;;;;;;5056246;28;19912;-70
2023/05/21 13:25:07;;;;;;;;;;;27.80;36.30;;;;;;5056151;28;19919;-70
2023/05/21 13:27:32;;;;;;;;;;;28.10;36.40;;;;;;5056233;28;19916;-70
2023/05/21 13:29:58;;;;;;;;;;;28.50;36.60;;;;;;5056099;28;19908;-71
2023/05/21 13:32:23;;;;;;;;;;;29.00;36.20;;;;;;5056098;28;19917;-71
2023/05/21 13:34:49;;;;;;;;;;;29.60;36.40;;;;;;5055710;28;19905;-71
2023/05/21 13:37:14;;;;;;;;;;;30.20;37.20;;;;;;5054444;28;20344;-69
2023/05/21 13:39:40;;;;;;;;;;;30.80;36.80;;;;;;5056055;28;19982;-67
2023/05/21 13:42:06;;;;;;;;;;;31.40;35.20;;;;;;5055540;28;19905;-67
2023/05/21 13:44:34;;;;;;;;;;;32.00;35.00;;;;;;5055623;28;19913;-68
2023/05/21 13:47:04;;;;;;;;;;;32.60;35.80;;;;;;5055684;28;19909;-68
2023/05/21 13:49:30;;;;;;;;;;;33.10;35.10;;;;;;5055643;28;19999;-68
2023/05/21 13:51:56;;;;;;;;;;;33.60;33.60;;;;;;5055499;28;19952;-68
2023/05/21 13:54:23;;;;;;;;;;;34.10;33.90;;;;;;5055324;28;19908;-68
2023/05/21 13:56:48;;;;;;;;;;;34.50;34.50;;;;;;5055430;28;20281;-67
2023/05/21 13:59:14;;;;;;;;;;;34.80;34.70;;;;;;5055256;28;19958;-67
2023/05/21 14:01:39;;;;;;;;;;;35.10;34.50;;;;;;5048903;28;19912;-68
2023/05/21 14:04:05;;;;;;;;;;;35.20;34.40;;;;;;5043493;28;20256;-69
2023/05/21 14:06:31;;;;;;;;;;;35.20;33.30;;;;;;5044773;28;19992;-69
2023/05/21 14:09:00;;;;;;;;;;;35.30;35.00;;;;;;5045356;28;19999;-67
2023/05/21 14:11:26;;;;;;;;;;;35.30;34.10;;;;;;5043673;28;19905;-69
2023/05/21 14:13:52;;;;;;;;;;;35.20;33.60;;;;;;5044677;28;19905;-68